ASA6532 KPHX-KVNY
Flight info
| Callsign | ASA6532 |
|---|---|
| Flight time | 1h 10m |
| Altitude | 30000 |
| Route | KEENS3 HRRBR PHRED THRNE4 |
| Aircraft | B738/M-SDE2E3FGHIRWXY/LB1 |
Departure
| Time | 2026-05-03 20:15 |
|---|---|
| Airport | Phoenix Sky Harbor International Airport (KPHX) |
Arrival
| Time | 2026-05-03 21:26 |
|---|---|
| Airport | Van Nuys Airport (KVNY) |
| Time | Latitude | Longitude | Altitude | Speed | Heading |
|---|---|---|---|---|---|
| 2026-05-03 20:15 | 33.35284 | -111.88505 | 9507 ft | 249 kts | 259° |
| 2026-05-03 20:15 | 33.35302 | -111.90602 | 10182 ft | 254 kts | 270° |
| 2026-05-03 20:15 | 33.35506 | -111.92726 | 10755 ft | 261 kts | 272° |
| 2026-05-03 20:15 | 33.35752 | -111.94968 | 10972 ft | 284 kts | 273° |
| 2026-05-03 20:16 | 33.36000 | -111.97401 | 11159 ft | 306 kts | 272° |
| 2026-05-03 20:16 | 33.36252 | -112.00020 | 11320 ft | 328 kts | 272° |
| 2026-05-03 20:16 | 33.36550 | -112.02811 | 11557 ft | 348 kts | 275° |
| 2026-05-03 20:16 | 33.36962 | -112.05699 | 12067 ft | 356 kts | 276° |
| 2026-05-03 20:17 | 33.37411 | -112.08616 | 12793 ft | 357 kts | 277° |
| 2026-05-03 20:17 | 33.37866 | -112.11544 | 13456 ft | 360 kts | 277° |
| 2026-05-03 20:17 | 33.38321 | -112.14502 | 14152 ft | 361 kts | 276° |
| 2026-05-03 20:17 | 33.38769 | -112.17453 | 14930 ft | 359 kts | 276° |
| 2026-05-03 20:18 | 33.39209 | -112.20381 | 15824 ft | 357 kts | 276° |
| 2026-05-03 20:18 | 33.39644 | -112.23304 | 16563 ft | 358 kts | 276° |
| 2026-05-03 20:18 | 33.40078 | -112.26240 | 17279 ft | 359 kts | 276° |
| 2026-05-03 20:18 | 33.40510 | -112.29177 | 18000 ft | 359 kts | 276° |
| 2026-05-03 20:19 | 33.40944 | -112.32130 | 18617 ft | 361 kts | 276° |
| 2026-05-03 20:19 | 33.41377 | -112.35087 | 19208 ft | 362 kts | 276° |
| 2026-05-03 20:19 | 33.41813 | -112.38068 | 19750 ft | 365 kts | 276° |
| 2026-05-03 20:19 | 33.42252 | -112.41071 | 20338 ft | 367 kts | 276° |
| 2026-05-03 20:20 | 33.42691 | -112.44077 | 20963 ft | 367 kts | 276° |
| 2026-05-03 20:20 | 33.43129 | -112.47080 | 21615 ft | 366 kts | 276° |
| 2026-05-03 20:20 | 33.43559 | -112.50041 | 22224 ft | 366 kts | 276° |
| 2026-05-03 20:20 | 33.43996 | -112.53049 | 22663 ft | 368 kts | 276° |
| 2026-05-03 20:21 | 33.44440 | -112.56116 | 23204 ft | 370 kts | 276° |
| 2026-05-03 20:21 | 33.44874 | -112.59116 | 23681 ft | 371 kts | 276° |
| 2026-05-03 20:21 | 33.45167 | -112.62172 | 24151 ft | 368 kts | 269° |
| 2026-05-03 20:21 | 33.45207 | -112.65222 | 24757 ft | 364 kts | 267° |
| 2026-05-03 20:22 | 33.45188 | -112.68224 | 25462 ft | 357 kts | 267° |
| 2026-05-03 20:22 | 33.45182 | -112.71180 | 26128 ft | 353 kts | 268° |
| 2026-05-03 20:22 | 33.45202 | -112.74109 | 26720 ft | 351 kts | 268° |
| 2026-05-03 20:22 | 33.45236 | -112.77019 | 27290 ft | 348 kts | 268° |
| 2026-05-03 20:23 | 33.45295 | -112.79905 | 27911 ft | 345 kts | 271° |
| 2026-05-03 20:23 | 33.45671 | -112.82741 | 28526 ft | 345 kts | 278° |
| 2026-05-03 20:23 | 33.46200 | -112.85532 | 29123 ft | 342 kts | 278° |
| 2026-05-03 20:23 | 33.46750 | -112.88296 | 29674 ft | 340 kts | 279° |
| 2026-05-03 20:24 | 33.47298 | -112.91068 | 29840 ft | 345 kts | 278° |
| 2026-05-03 20:24 | 33.48380 | -112.96672 | 29846 ft | 343 kts | 278° |
| 2026-05-03 20:25 | 33.49424 | -113.02197 | 29848 ft | 340 kts | 278° |
| 2026-05-03 20:25 | 33.50460 | -113.07755 | 29842 ft | 343 kts | 278° |
| 2026-05-03 20:26 | 33.51497 | -113.13356 | 29863 ft | 345 kts | 278° |
| 2026-05-03 20:26 | 33.52534 | -113.18965 | 29842 ft | 343 kts | 278° |
| 2026-05-03 20:27 | 33.53560 | -113.24528 | 29832 ft | 340 kts | 278° |
| 2026-05-03 20:27 | 33.54574 | -113.30042 | 29826 ft | 337 kts | 278° |
| 2026-05-03 20:28 | 33.55577 | -113.35518 | 29836 ft | 336 kts | 278° |
| 2026-05-03 20:28 | 33.56576 | -113.40982 | 29837 ft | 336 kts | 277° |
| 2026-05-03 20:29 | 33.57575 | -113.46459 | 30158 ft | 337 kts | 277° |
| 2026-05-03 20:29 | 33.58570 | -113.51925 | 30168 ft | 339 kts | 277° |
| 2026-05-03 20:30 | 33.59608 | -113.57487 | 30166 ft | 340 kts | 278° |
| 2026-05-03 20:30 | 33.60647 | -113.63030 | 30164 ft | 341 kts | 277° |
| 2026-05-03 20:31 | 33.61682 | -113.68578 | 30166 ft | 341 kts | 278° |
| 2026-05-03 20:31 | 33.62706 | -113.74092 | 30110 ft | 340 kts | 278° |
| 2026-05-03 20:32 | 33.63739 | -113.79663 | 30054 ft | 339 kts | 277° |
| 2026-05-03 20:32 | 33.64752 | -113.85149 | 29986 ft | 338 kts | 277° |
| 2026-05-03 20:33 | 33.64996 | -113.90693 | 29929 ft | 332 kts | 266° |
| 2026-05-03 20:33 | 33.64871 | -113.96245 | 29867 ft | 333 kts | 266° |
| 2026-05-03 20:34 | 33.64769 | -114.01817 | 29805 ft | 335 kts | 266° |
| 2026-05-03 20:34 | 33.64678 | -114.07409 | 29816 ft | 336 kts | 266° |
| 2026-05-03 20:35 | 33.64626 | -114.13012 | 29802 ft | 337 kts | 270° |
| 2026-05-03 20:35 | 33.65119 | -114.18625 | 29801 ft | 339 kts | 273° |
| 2026-05-03 20:36 | 33.65636 | -114.23282 | 29803 ft | 338 kts | 273° |
| 2026-05-03 20:36 | 33.66233 | -114.28862 | 29799 ft | 336 kts | 273° |
| 2026-05-03 20:37 | 33.66799 | -114.34421 | 29814 ft | 335 kts | 273° |
| 2026-05-03 20:37 | 33.67351 | -114.39975 | 29809 ft | 335 kts | 272° |
| 2026-05-03 20:38 | 33.67894 | -114.45531 | 29826 ft | 335 kts | 272° |
| 2026-05-03 20:38 | 33.68435 | -114.51095 | 29818 ft | 336 kts | 272° |
| 2026-05-03 20:39 | 33.68973 | -114.56659 | 29822 ft | 336 kts | 272° |
| 2026-05-03 20:39 | 33.69509 | -114.62225 | 29837 ft | 336 kts | 272° |
| 2026-05-03 20:40 | 33.70044 | -114.67804 | 29830 ft | 336 kts | 272° |
| 2026-05-03 20:40 | 33.70577 | -114.73386 | 29832 ft | 336 kts | 272° |
| 2026-05-03 20:41 | 33.71106 | -114.78964 | 29829 ft | 336 kts | 272° |
| 2026-05-03 20:41 | 33.71632 | -114.84533 | 29832 ft | 335 kts | 272° |
| 2026-05-03 20:42 | 33.72157 | -114.90108 | 29821 ft | 336 kts | 272° |
| 2026-05-03 20:42 | 33.72678 | -114.95689 | 29806 ft | 336 kts | 272° |
| 2026-05-03 20:43 | 33.73198 | -115.01269 | 29810 ft | 336 kts | 272° |
| 2026-05-03 20:43 | 33.73714 | -115.06838 | 29810 ft | 335 kts | 272° |
| 2026-05-03 20:44 | 33.74228 | -115.12401 | 29806 ft | 335 kts | 272° |
| 2026-05-03 20:44 | 33.74739 | -115.17979 | 29795 ft | 336 kts | 272° |
| 2026-05-03 20:45 | 33.75304 | -115.23561 | 29785 ft | 336 kts | 272° |
| 2026-05-03 20:45 | 33.75878 | -115.29133 | 29791 ft | 336 kts | 272° |
| 2026-05-03 20:46 | 33.76439 | -115.34656 | 29744 ft | 336 kts | 272° |
| 2026-05-03 20:46 | 33.76722 | -115.37458 | 29361 ft | 336 kts | 272° |
| 2026-05-03 20:46 | 33.77002 | -115.40233 | 28833 ft | 335 kts | 272° |
| 2026-05-03 20:46 | 33.77282 | -115.42977 | 28553 ft | 328 kts | 272° |
| 2026-05-03 20:47 | 33.77564 | -115.45688 | 28215 ft | 325 kts | 272° |
| 2026-05-03 20:47 | 33.77841 | -115.48365 | 27931 ft | 320 kts | 272° |
| 2026-05-03 20:47 | 33.78114 | -115.50971 | 27803 ft | 311 kts | 272° |
| 2026-05-03 20:47 | 33.78380 | -115.53554 | 27867 ft | 316 kts | 272° |
| 2026-05-03 20:48 | 33.78649 | -115.56215 | 27856 ft | 325 kts | 272° |
| 2026-05-03 20:48 | 33.78929 | -115.58949 | 27878 ft | 333 kts | 272° |
| 2026-05-03 20:48 | 33.79212 | -115.61732 | 27659 ft | 336 kts | 273° |
| 2026-05-03 20:48 | 33.79486 | -115.64501 | 27400 ft | 330 kts | 272° |
| 2026-05-03 20:49 | 33.79753 | -115.67221 | 27135 ft | 325 kts | 272° |
| 2026-05-03 20:49 | 33.80013 | -115.69903 | 26765 ft | 322 kts | 271° |
| 2026-05-03 20:49 | 33.80269 | -115.72570 | 26301 ft | 321 kts | 271° |
| 2026-05-03 20:49 | 33.80525 | -115.75231 | 25851 ft | 320 kts | 271° |
| 2026-05-03 20:50 | 33.80781 | -115.77881 | 25435 ft | 319 kts | 271° |
| 2026-05-03 20:50 | 33.81036 | -115.80524 | 25033 ft | 317 kts | 271° |
| 2026-05-03 20:50 | 33.81292 | -115.83150 | 24639 ft | 316 kts | 271° |
| 2026-05-03 20:50 | 33.81556 | -115.85770 | 24241 ft | 315 kts | 271° |
| 2026-05-03 20:51 | 33.81824 | -115.88387 | 23834 ft | 315 kts | 271° |
| 2026-05-03 20:51 | 33.82089 | -115.90994 | 23449 ft | 314 kts | 271° |
| 2026-05-03 20:51 | 33.82352 | -115.93588 | 23042 ft | 312 kts | 271° |
| 2026-05-03 20:51 | 33.82613 | -115.96169 | 22661 ft | 310 kts | 271° |
| 2026-05-03 20:52 | 33.82872 | -115.98736 | 22303 ft | 307 kts | 271° |
| 2026-05-03 20:52 | 33.83128 | -116.01275 | 21986 ft | 305 kts | 271° |
| 2026-05-03 20:52 | 33.83380 | -116.03794 | 21705 ft | 302 kts | 271° |
| 2026-05-03 20:52 | 33.83630 | -116.06300 | 21430 ft | 303 kts | 271° |
| 2026-05-03 20:53 | 33.83881 | -116.08828 | 21166 ft | 307 kts | 271° |
| 2026-05-03 20:53 | 33.84135 | -116.11400 | 20894 ft | 311 kts | 271° |
| 2026-05-03 20:53 | 33.84372 | -116.13995 | 20552 ft | 313 kts | 270° |
| 2026-05-03 20:53 | 33.84575 | -116.16600 | 20236 ft | 313 kts | 270° |
| 2026-05-03 20:54 | 33.84770 | -116.19206 | 19903 ft | 314 kts | 269° |
| 2026-05-03 20:54 | 33.85161 | -116.24438 | 19253 ft | 314 kts | 270° |
| 2026-05-03 20:54 | 33.85360 | -116.27048 | 18981 ft | 313 kts | 269° |
| 2026-05-03 20:55 | 33.85557 | -116.29632 | 18642 ft | 314 kts | 269° |
| 2026-05-03 20:55 | 33.85755 | -116.32237 | 18323 ft | 312 kts | 269° |
| 2026-05-03 20:55 | 33.85952 | -116.34823 | 17972 ft | 309 kts | 269° |
| 2026-05-03 20:55 | 33.86163 | -116.37386 | 17639 ft | 307 kts | 270° |
| 2026-05-03 20:56 | 33.86407 | -116.39932 | 17314 ft | 305 kts | 270° |
| 2026-05-03 20:56 | 33.86655 | -116.42460 | 16995 ft | 303 kts | 271° |
| 2026-05-03 20:56 | 33.86900 | -116.44974 | 16707 ft | 302 kts | 270° |
| 2026-05-03 20:56 | 33.87141 | -116.47478 | 16401 ft | 301 kts | 270° |
| 2026-05-03 20:57 | 33.87380 | -116.49989 | 16112 ft | 302 kts | 270° |
| 2026-05-03 20:57 | 33.87622 | -116.52502 | 15826 ft | 303 kts | 271° |
| 2026-05-03 20:57 | 33.87969 | -116.55021 | 15648 ft | 307 kts | 275° |
| 2026-05-03 20:57 | 33.88388 | -116.57566 | 15458 ft | 312 kts | 275° |
| 2026-05-03 20:58 | 33.88811 | -116.60119 | 15260 ft | 310 kts | 275° |
| 2026-05-03 20:58 | 33.89221 | -116.62659 | 15076 ft | 309 kts | 274° |
| 2026-05-03 20:58 | 33.89625 | -116.65192 | 14865 ft | 307 kts | 275° |
| 2026-05-03 20:58 | 33.90025 | -116.67713 | 14716 ft | 306 kts | 275° |
| 2026-05-03 20:59 | 33.90422 | -116.70230 | 14567 ft | 306 kts | 274° |
| 2026-05-03 20:59 | 33.90820 | -116.72754 | 14388 ft | 307 kts | 273° |
| 2026-05-03 20:59 | 33.91220 | -116.75280 | 14247 ft | 309 kts | 277° |
| 2026-05-03 20:59 | 33.91632 | -116.77843 | 14096 ft | 313 kts | 273° |
| 2026-05-03 21:00 | 33.92035 | -116.80422 | 13926 ft | 315 kts | 275° |
| 2026-05-03 21:00 | 33.92305 | -116.82141 | 13823 ft | 315 kts | 275° |
| 2026-05-03 21:00 | 33.92852 | -116.85602 | 13583 ft | 314 kts | 275° |
| 2026-05-03 21:00 | 33.93258 | -116.88173 | 13446 ft | 312 kts | 276° |
| 2026-05-03 21:01 | 33.93662 | -116.90741 | 13275 ft | 311 kts | 276° |
| 2026-05-03 21:01 | 33.94063 | -116.93302 | 13093 ft | 311 kts | 276° |
| 2026-05-03 21:01 | 33.94463 | -116.95859 | 12913 ft | 310 kts | 276° |
| 2026-05-03 21:01 | 33.94948 | -116.98422 | 12526 ft | 318 kts | 280° |
| 2026-05-03 21:02 | 33.95538 | -117.01009 | 12171 ft | 322 kts | 281° |
| 2026-05-03 21:02 | 33.96138 | -117.03603 | 11775 ft | 322 kts | 281° |
| 2026-05-03 21:02 | 33.96726 | -117.06203 | 11391 ft | 322 kts | 280° |
| 2026-05-03 21:02 | 33.97306 | -117.08805 | 10992 ft | 322 kts | 280° |
| 2026-05-03 21:03 | 33.97874 | -117.11370 | 10919 ft | 311 kts | 280° |
| 2026-05-03 21:03 | 33.98419 | -117.13848 | 10832 ft | 303 kts | 279° |
| 2026-05-03 21:03 | 33.98953 | -117.16287 | 10762 ft | 299 kts | 279° |
| 2026-05-03 21:03 | 33.99483 | -117.18722 | 10735 ft | 304 kts | 279° |
| 2026-05-03 21:04 | 34.00051 | -117.21203 | 10700 ft | 310 kts | 281° |
| 2026-05-03 21:04 | 34.00680 | -117.23693 | 10645 ft | 310 kts | 282° |
| 2026-05-03 21:04 | 34.01322 | -117.26176 | 10588 ft | 310 kts | 282° |
| 2026-05-03 21:04 | 34.01961 | -117.28652 | 10513 ft | 309 kts | 282° |
| 2026-05-03 21:05 | 34.02595 | -117.31127 | 10457 ft | 308 kts | 282° |
| 2026-05-03 21:05 | 34.03215 | -117.33563 | 10398 ft | 308 kts | 282° |
| 2026-05-03 21:05 | 34.03842 | -117.36034 | 10327 ft | 308 kts | 282° |
| 2026-05-03 21:05 | 34.04465 | -117.38501 | 10266 ft | 308 kts | 282° |
| 2026-05-03 21:06 | 34.05090 | -117.40979 | 10205 ft | 309 kts | 282° |
| 2026-05-03 21:06 | 34.05713 | -117.43446 | 10131 ft | 306 kts | 282° |
| 2026-05-03 21:06 | 34.06325 | -117.45872 | 10017 ft | 300 kts | 282° |
| 2026-05-03 21:06 | 34.06932 | -117.48289 | 9994 ft | 300 kts | 282° |
| 2026-05-03 21:07 | 34.07512 | -117.50681 | 9971 ft | 291 kts | 279° |
| 2026-05-03 21:07 | 34.07915 | -117.53010 | 9968 ft | 278 kts | 276° |
| 2026-05-03 21:07 | 34.08249 | -117.55273 | 9968 ft | 271 kts | 275° |
| 2026-05-03 21:07 | 34.08572 | -117.57505 | 9983 ft | 272 kts | 275° |
| 2026-05-03 21:08 | 34.08904 | -117.59784 | 9995 ft | 279 kts | 275° |
| 2026-05-03 21:08 | 34.09248 | -117.62099 | 9993 ft | 282 kts | 276° |
| 2026-05-03 21:08 | 34.09599 | -117.64420 | 9990 ft | 280 kts | 276° |
| 2026-05-03 21:08 | 34.09952 | -117.66728 | 9997 ft | 279 kts | 276° |
| 2026-05-03 21:09 | 34.10306 | -117.69034 | 9993 ft | 280 kts | 276° |
| 2026-05-03 21:09 | 34.10662 | -117.71343 | 9984 ft | 280 kts | 276° |
| 2026-05-03 21:09 | 34.11016 | -117.73644 | 9983 ft | 279 kts | 276° |
| 2026-05-03 21:09 | 34.11371 | -117.75949 | 9993 ft | 279 kts | 276° |
| 2026-05-03 21:10 | 34.11724 | -117.78246 | 9997 ft | 278 kts | 276° |
| 2026-05-03 21:10 | 34.12077 | -117.80541 | 10001 ft | 278 kts | 276° |
| 2026-05-03 21:10 | 34.12429 | -117.82834 | 10002 ft | 278 kts | 276° |
| 2026-05-03 21:10 | 34.12781 | -117.85130 | 9998 ft | 278 kts | 275° |
| 2026-05-03 21:11 | 34.13130 | -117.87449 | 9743 ft | 285 kts | 275° |
| 2026-05-03 21:11 | 34.13484 | -117.89830 | 9426 ft | 290 kts | 275° |
| 2026-05-03 21:11 | 34.13847 | -117.92223 | 9080 ft | 290 kts | 275° |
| 2026-05-03 21:11 | 34.14211 | -117.94612 | 8770 ft | 289 kts | 273° |
| 2026-05-03 21:12 | 34.14570 | -117.97000 | 8438 ft | 289 kts | 273° |
| 2026-05-03 21:12 | 34.14926 | -117.99390 | 8105 ft | 289 kts | 276° |
| 2026-05-03 21:12 | 34.15388 | -118.01727 | 7952 ft | 286 kts | 291° |
| 2026-05-03 21:12 | 34.16488 | -118.03717 | 7868 ft | 283 kts | 304° |
| 2026-05-03 21:13 | 34.17711 | -118.05549 | 7796 ft | 280 kts | 303° |
| 2026-05-03 21:13 | 34.18943 | -118.07388 | 7739 ft | 283 kts | 306° |
| 2026-05-03 21:13 | 34.20181 | -118.09228 | 7646 ft | 282 kts | 306° |
| 2026-05-03 21:13 | 34.21412 | -118.11075 | 7572 ft | 283 kts | 305° |
| 2026-05-03 21:14 | 34.22585 | -118.12987 | 7489 ft | 284 kts | 304° |
| 2026-05-03 21:14 | 34.23811 | -118.14871 | 7384 ft | 286 kts | 305° |
| 2026-05-03 21:14 | 34.25360 | -118.16179 | 7031 ft | 283 kts | 354° |
| 2026-05-03 21:14 | 34.27248 | -118.16626 | 7278 ft | 286 kts | 341° |
| 2026-05-03 21:15 | 34.29011 | -118.17939 | 6835 ft | 306 kts | 310° |
| 2026-05-03 21:15 | 34.30235 | -118.20027 | 6578 ft | 301 kts | 293° |
| 2026-05-03 21:15 | 34.31016 | -118.22345 | 6352 ft | 295 kts | 283° |
| 2026-05-03 21:15 | 34.31694 | -118.24667 | 6260 ft | 292 kts | 288° |
| 2026-05-03 21:16 | 34.32568 | -118.26828 | 6104 ft | 288 kts | 294° |
| 2026-05-03 21:16 | 34.33584 | -118.28883 | 6020 ft | 283 kts | 300° |
| 2026-05-03 21:16 | 34.34677 | -118.30836 | 6030 ft | 280 kts | 301° |
| 2026-05-03 21:16 | 34.35797 | -118.32756 | 5990 ft | 276 kts | 303° |
| 2026-05-03 21:17 | 34.36974 | -118.34574 | 5996 ft | 277 kts | 303° |
| 2026-05-03 21:17 | 34.37772 | -118.35812 | 6014 ft | 276 kts | 303° |
| 2026-05-03 21:17 | 34.39229 | -118.38271 | 6034 ft | 276 kts | 305° |
| 2026-05-03 21:17 | 34.40457 | -118.40095 | 5998 ft | 279 kts | 307° |
| 2026-05-03 21:18 | 34.41676 | -118.41904 | 5999 ft | 276 kts | 306° |
| 2026-05-03 21:18 | 34.42863 | -118.43695 | 5983 ft | 268 kts | 306° |
| 2026-05-03 21:18 | 34.43889 | -118.45483 | 5983 ft | 250 kts | 294° |
| 2026-05-03 21:18 | 34.44841 | -118.47193 | 5979 ft | 240 kts | 302° |
| 2026-05-03 21:19 | 34.45534 | -118.48902 | 5926 ft | 213 kts | 268° |
| 2026-05-03 21:19 | 34.45212 | -118.50443 | 5957 ft | 176 kts | 224° |
| 2026-05-03 21:19 | 34.44210 | -118.51012 | 5982 ft | 160 kts | 183° |
| 2026-05-03 21:19 | 34.43074 | -118.51034 | 5737 ft | 163 kts | 181° |
| 2026-05-03 21:20 | 34.41945 | -118.50993 | 5466 ft | 161 kts | 177° |
| 2026-05-03 21:20 | 34.40845 | -118.50911 | 5251 ft | 157 kts | 176° |
| 2026-05-03 21:20 | 34.39774 | -118.50818 | 5012 ft | 153 kts | 175° |
| 2026-05-03 21:20 | 34.38719 | -118.50720 | 4765 ft | 152 kts | 176° |
| 2026-05-03 21:21 | 34.37681 | -118.50622 | 4536 ft | 148 kts | 176° |
| 2026-05-03 21:21 | 34.36659 | -118.50526 | 4316 ft | 149 kts | 176° |
| 2026-05-03 21:21 | 34.35623 | -118.50427 | 4071 ft | 149 kts | 177° |
| 2026-05-03 21:21 | 34.34599 | -118.50330 | 3859 ft | 146 kts | 176° |
| 2026-05-03 21:22 | 34.33617 | -118.50236 | 3636 ft | 139 kts | 178° |
| 2026-05-03 21:22 | 34.32699 | -118.50151 | 3449 ft | 127 kts | 177° |
| 2026-05-03 21:22 | 34.31844 | -118.50069 | 3225 ft | 118 kts | 177° |
| 2026-05-03 21:22 | 34.31303 | -118.50018 | 3134 ft | 118 kts | 179° |
| 2026-05-03 21:23 | 34.30468 | -118.49939 | 2934 ft | 121 kts | 176° |
| 2026-05-03 21:23 | 34.29370 | -118.49835 | 2653 ft | 120 kts | 175° |
| 2026-05-03 21:23 | 34.28795 | -118.49794 | 2566 ft | 126 kts | 180° |
| 2026-05-03 21:23 | 34.27889 | -118.49703 | 2302 ft | 132 kts | 169° |
| 2026-05-03 21:24 | 34.26664 | -118.49564 | 2035 ft | 135 kts | 175° |
| 2026-05-03 21:24 | 34.26027 | -118.49514 | 1888 ft | 136 kts | 175° |
| 2026-05-03 21:24 | 34.25091 | -118.49428 | 1690 ft | 134 kts | 175° |
| 2026-05-03 21:24 | 34.24171 | -118.49341 | 1460 ft | 131 kts | 176° |
| 2026-05-03 21:25 | 34.23272 | -118.49254 | 1286 ft | 130 kts | 178° |
| 2026-05-03 21:25 | 34.22367 | -118.49169 | 1069 ft | 128 kts | 177° |
| 2026-05-03 21:25 | 34.21479 | -118.49085 | 842 ft | 125 kts | 178° |
| 2026-05-03 21:25 | 34.20703 | -118.49014 | 785 ft | 94 kts | 175° |
| 2026-05-03 21:26 | 34.20274 | -118.48973 | 767 ft | 35 kts | 176° |
| 2026-05-03 21:26 | 34.20134 | -118.48969 | 758 ft | 12 kts | 204° |
| 2026-05-03 21:26 | 34.20142 | -118.49042 | 758 ft | 11 kts | 338° |
| 2026-05-03 21:26 | 34.20216 | -118.49066 | 764 ft | 11 kts | 347° |
| 2026-05-03 21:27 | 34.20288 | -118.49086 | 766 ft | 11 kts | 348° |
| 2026-05-03 21:27 | 34.20359 | -118.49097 | 770 ft | 10 kts | 355° |
| 2026-05-03 21:27 | 34.20437 | -118.49105 | 774 ft | 13 kts | 355° |
| 2026-05-03 21:27 | 34.20526 | -118.49114 | 778 ft | 13 kts | 355° |
| 2026-05-03 21:28 | 34.20613 | -118.49122 | 780 ft | 13 kts | 356° |
| 2026-05-03 21:28 | 34.20725 | -118.49131 | 785 ft | 17 kts | 356° |
| 2026-05-03 21:28 | 34.20840 | -118.49142 | 790 ft | 16 kts | 355° |
| 2026-05-03 21:28 | 34.20949 | -118.49153 | 791 ft | 16 kts | 355° |
| 2026-05-03 21:29 | 34.21055 | -118.49163 | 791 ft | 15 kts | 355° |
| 2026-05-03 21:29 | 34.21158 | -118.49173 | 793 ft | 16 kts | 355° |
| 2026-05-03 21:29 | 34.21285 | -118.49185 | 795 ft | 20 kts | 355° |
| 2026-05-03 21:29 | 34.21420 | -118.49198 | 794 ft | 19 kts | 355° |
| 2026-05-03 21:30 | 34.21543 | -118.49217 | 797 ft | 16 kts | 351° |
| 2026-05-03 21:30 | 34.21642 | -118.49227 | 802 ft | 13 kts | 356° |
| 2026-05-03 21:30 | 34.21715 | -118.49267 | 804 ft | 12 kts | 292° |
| 2026-05-03 21:30 | 34.21731 | -118.49368 | 805 ft | 13 kts | 279° |
| 2026-05-03 21:31 | 34.21745 | -118.49476 | 807 ft | 13 kts | 278° |
| 2026-05-03 21:31 | 34.21757 | -118.49582 | 809 ft | 13 kts | 277° |
| 2026-05-03 21:31 | 34.21727 | -118.49669 | 810 ft | 11 kts | 228° |
| 2026-05-03 21:31 | 34.21667 | -118.49719 | 809 ft | 10 kts | 184° |
| 2026-05-03 21:32 | 34.21642 | -118.49717 | 807 ft | 1 kts | 178° |
| 2026-05-03 21:32 | 34.21641 | -118.49717 | 807 ft | 0 kts | 178° |